createdAt,value
2022-08-05T00:00:15.990Z,24.46
2022-08-05T00:02:50.794Z,24.61
2022-08-05T00:06:02.723Z,24.62
2022-08-05T00:08:20.016Z,24.64
2022-08-05T00:11:00.404Z,24.58
2022-08-05T00:13:38.421Z,24.57
2022-08-05T00:16:10.883Z,24.48
2022-08-05T00:18:41.046Z,24.37
2022-08-05T00:21:10.966Z,24.25
2022-08-05T00:23:45.681Z,24.16
2022-08-05T00:26:16.353Z,24.15
2022-08-05T00:28:45.903Z,24.15
2022-08-05T00:31:14.401Z,24.14
2022-08-05T00:34:55.196Z,24.22
2022-08-05T00:37:13.232Z,24.29
2022-08-05T00:39:19.523Z,24.08
2022-08-05T00:41:51.594Z,24.05
2022-08-05T00:44:20.923Z,23.98
2022-08-05T00:46:54.327Z,24.18
2022-08-05T00:49:32.725Z,24.10
2022-08-05T00:52:01.051Z,24.04
2022-08-05T00:54:30.376Z,24.01
2022-08-05T00:56:58.422Z,24.02
2022-08-05T00:59:26.271Z,23.82
2022-08-05T01:02:02.636Z,23.70
2022-08-05T01:04:30.536Z,23.58
2022-08-05T01:06:58.428Z,23.62
2022-08-05T01:09:27.383Z,23.65
2022-08-05T01:12:04.825Z,23.65
2022-08-05T01:14:50.070Z,23.79
2022-08-05T01:17:22.777Z,23.65
2022-08-05T01:20:02.149Z,23.67
2022-08-05T01:22:41.934Z,23.55
2022-08-05T01:25:40.935Z,23.79
2022-08-05T01:28:29.190Z,23.90
2022-08-05T01:31:02.883Z,23.95
2022-08-05T01:33:35.891Z,23.68
2022-08-05T01:36:13.185Z,23.48
2022-08-05T01:38:45.477Z,23.43
2022-08-05T01:41:15.626Z,23.57
2022-08-05T01:43:45.645Z,23.68
2022-08-05T01:46:42.313Z,23.43
2022-08-05T01:49:12.215Z,23.34
2022-08-05T01:51:51.978Z,23.32
2022-08-05T01:54:20.608Z,23.19
2022-08-05T01:58:10.036Z,23.24
2022-08-05T01:59:47.029Z,23.21
2022-08-05T02:02:15.931Z,23.18
2022-08-05T02:04:49.655Z,23.24
2022-08-05T02:07:21.951Z,23.10
2022-08-05T02:09:50.980Z,23.05
2022-08-05T02:12:25.245Z,23.11
2022-08-05T02:15:03.080Z,23.05
2022-08-05T02:18:28.292Z,23.14
2022-08-05T02:20:41.733Z,22.91
2022-08-05T02:23:12.157Z,22.99
2022-08-05T02:25:49.818Z,23.08
2022-08-05T02:28:28.852Z,23.07
2022-08-05T02:31:14.409Z,23.08
2022-08-05T02:33:57.399Z,23.17
2022-08-05T02:36:27.578Z,23.17
2022-08-05T02:38:59.622Z,23.36
2022-08-05T02:41:43.267Z,23.37
2022-08-05T02:44:17.881Z,23.33
2022-08-05T02:46:59.816Z,23.34
2022-08-05T02:49:36.701Z,23.44
2022-08-05T02:52:09.045Z,23.37
2022-08-05T02:54:41.315Z,23.22
2022-08-05T02:58:12.348Z,23.24
2022-08-05T03:00:01.300Z,23.08
2022-08-05T03:02:35.060Z,23.15
2022-08-05T03:05:04.147Z,23.23
2022-08-05T03:08:00.736Z,23.17
2022-08-05T03:10:24.559Z,22.99
2022-08-05T03:12:54.543Z,23.08
2022-08-05T03:15:24.328Z,22.99
2022-08-05T03:17:55.761Z,22.84
2022-08-05T03:20:25.347Z,22.83
2022-08-05T03:22:57.272Z,22.83
2022-08-05T03:25:33.533Z,22.72
2022-08-05T03:28:14.634Z,22.64
2022-08-05T03:30:47.957Z,22.77
2022-08-05T03:33:17.804Z,22.61
2022-08-05T03:35:46.663Z,22.72
2022-08-05T03:38:15.160Z,22.51
2022-08-05T03:40:45.233Z,22.25
2022-08-05T03:44:09.701Z,22.05
2022-08-05T03:46:04.581Z,21.96
2022-08-05T03:48:35.182Z,22.12
2022-08-05T03:52:37.483Z,22.15
2022-08-05T03:55:53.613Z,22.18
2022-08-05T03:56:50.238Z,21.80
2022-08-05T03:59:24.557Z,21.78
2022-08-05T04:01:53.352Z,21.53
2022-08-05T04:04:28.860Z,21.56
2022-08-05T04:06:56.955Z,21.23
2022-08-05T04:09:26.542Z,21.43
2022-08-05T04:11:56.552Z,21.45
2022-08-05T04:14:29.864Z,21.19
2022-08-05T04:16:59.638Z,21.19
2022-08-05T04:19:29.212Z,21.28
2022-08-05T04:22:09.669Z,21.29
2022-08-05T04:24:44.458Z,21.42
2022-08-05T04:27:13.355Z,21.31
2022-08-05T04:29:41.802Z,21.37
2022-08-05T04:32:10.498Z,21.43
2022-08-05T04:34:43.091Z,21.36
2022-08-05T04:37:11.433Z,21.42
2022-08-05T04:39:40.763Z,21.40
2022-08-05T04:42:09.779Z,21.32
2022-08-05T04:44:37.642Z,21.36
2022-08-05T04:47:09.757Z,21.49
2022-08-05T04:50:03.013Z,21.60
2022-08-05T04:52:28.572Z,21.58
2022-08-05T04:54:57.364Z,21.46
2022-08-05T04:57:28.589Z,21.59
2022-08-05T04:59:58.494Z,21.70
2022-08-05T05:02:36.841Z,21.75
2022-08-05T05:05:16.546Z,21.94
2022-08-05T05:07:56.474Z,21.80
2022-08-05T05:10:29.706Z,21.83
2022-08-05T05:12:57.806Z,21.80
2022-08-05T05:15:57.895Z,21.83
2022-08-05T05:18:31.626Z,21.95
2022-08-05T05:21:04.351Z,21.90
2022-08-05T05:23:39.319Z,21.76
2022-08-05T05:26:28.416Z,21.73
2022-08-05T05:29:00.977Z,21.65
2022-08-05T05:34:02.617Z,21.69
2022-08-05T05:36:32.751Z,21.53
2022-08-05T05:39:05.441Z,21.71
2022-08-05T05:41:40.554Z,21.69
2022-08-05T05:44:35.995Z,21.65
2022-08-05T05:46:58.413Z,21.80
2022-08-05T05:49:33.073Z,21.77
2022-08-05T05:52:06.039Z,21.92
2022-08-05T05:54:50.144Z,21.90
2022-08-05T05:57:19.815Z,21.94
2022-08-05T05:59:48.909Z,21.84
2022-08-05T06:02:17.353Z,21.81
2022-08-05T06:05:03.392Z,21.93
2022-08-05T06:07:41.593Z,21.88
2022-08-05T06:10:11.309Z,21.90
2022-08-05T06:12:42.272Z,22.02
2022-08-05T06:15:16.412Z,21.86
2022-08-05T06:17:54.258Z,21.99
2022-08-05T06:20:23.106Z,21.93
2022-08-05T06:22:52.351Z,21.96
2022-08-05T06:25:25.207Z,21.94
2022-08-05T06:28:12.249Z,22.20
2022-08-05T06:30:49.158Z,22.10
2022-08-05T06:33:19.430Z,22.10
2022-08-05T06:36:07.641Z,21.96
2022-08-05T06:38:39.237Z,22.03
2022-08-05T06:41:15.046Z,21.91
2022-08-05T06:43:57.440Z,22.03
2022-08-05T06:46:29.869Z,22.16
2022-08-05T06:48:59.489Z,22.13
2022-08-05T06:51:30.092Z,22.19
2022-08-05T06:54:02.484Z,22.13
2022-08-05T06:56:34.484Z,22.35
2022-08-05T06:59:03.009Z,22.36
2022-08-05T07:01:32.266Z,22.17
2022-08-05T07:04:02.443Z,21.94
2022-08-05T07:06:31.754Z,21.99
2022-08-05T07:09:04.230Z,21.94
2022-08-05T07:11:37.351Z,21.92
2022-08-05T07:14:29.522Z,21.94
2022-08-05T07:18:01.615Z,22.01
2022-08-05T07:22:37.133Z,21.81
2022-08-05T07:25:22.065Z,21.78
2022-08-05T07:28:01.433Z,21.94
2022-08-05T07:30:33.588Z,21.72
2022-08-05T07:33:05.088Z,21.55
2022-08-05T07:36:04.784Z,21.22
2022-08-05T07:38:32.979Z,21.24
2022-08-05T07:41:35.216Z,21.03
2022-08-05T07:43:56.406Z,20.95
2022-08-05T07:46:26.379Z,20.96
2022-08-05T07:49:03.076Z,21.05
2022-08-05T07:51:40.546Z,21.24
2022-08-05T07:54:18.851Z,20.99
2022-08-05T07:57:13.850Z,20.99
2022-08-05T07:59:39.870Z,20.73
2022-08-05T08:02:15.264Z,20.89
2022-08-05T08:04:44.882Z,20.80
2022-08-05T08:07:13.495Z,21.07
2022-08-05T08:09:41.401Z,20.90
2022-08-05T08:12:27.321Z,21.02
2022-08-05T08:15:02.526Z,20.64
2022-08-05T08:17:31.536Z,20.62
2022-08-05T08:20:21.496Z,20.80
2022-08-05T08:22:52.556Z,20.72
2022-08-05T08:25:26.427Z,20.69
2022-08-05T08:27:56.506Z,20.61
2022-08-05T08:30:32.726Z,20.47
2022-08-05T08:33:08.767Z,20.43
2022-08-05T08:35:53.802Z,20.49
2022-08-05T08:38:35.739Z,20.56
2022-08-05T08:41:08.754Z,20.59
2022-08-05T08:45:24.776Z,20.75
2022-08-05T08:46:28.760Z,20.58
2022-08-05T08:49:06.093Z,20.61
2022-08-05T08:52:02.900Z,20.59
2022-08-05T08:54:36.463Z,20.86
2022-08-05T08:57:11.220Z,20.87
2022-08-05T08:59:42.046Z,20.93
2022-08-05T09:02:16.642Z,20.59
2022-08-05T09:04:58.479Z,20.59
2022-08-05T09:07:39.553Z,20.58
2022-08-05T09:10:22.587Z,20.70
2022-08-05T09:12:55.808Z,20.94
2022-08-05T09:15:25.282Z,21.14
2022-08-05T09:17:53.389Z,21.00
2022-08-05T09:20:37.754Z,21.05
2022-08-05T09:23:19.792Z,20.97
2022-08-05T09:26:01.205Z,21.17
2022-08-05T09:28:34.387Z,21.03
2022-08-05T09:31:18.131Z,21.17
2022-08-05T09:33:55.168Z,21.26
2022-08-05T09:36:27.411Z,21.41
2022-08-05T09:38:59.401Z,21.39
2022-08-05T09:41:27.413Z,21.09
2022-08-05T09:44:01.202Z,21.31
2022-08-05T09:46:31.960Z,21.20
2022-08-05T09:49:07.521Z,21.28
2022-08-05T09:51:49.366Z,21.13
2022-08-05T09:54:28.754Z,21.21
2022-08-05T09:57:01.653Z,21.23
2022-08-05T09:59:34.777Z,21.53
2022-08-05T10:02:07.097Z,21.84
2022-08-05T10:04:40.927Z,21.86
2022-08-05T10:07:20.009Z,21.92
2022-08-05T10:10:14.313Z,21.70
2022-08-05T10:12:50.403Z,21.52
2022-08-05T10:15:23.946Z,21.68
2022-08-05T10:18:08.652Z,21.24
2022-08-05T10:20:39.841Z,21.44
2022-08-05T10:23:08.973Z,21.37
2022-08-05T10:25:57.497Z,21.86
2022-08-05T10:28:30.331Z,21.70
2022-08-05T10:32:48.713Z,21.30
2022-08-05T10:33:54.071Z,21.25
2022-08-05T10:36:23.437Z,21.35
2022-08-05T10:38:59.721Z,21.57
2022-08-05T10:41:45.148Z,21.49
2022-08-05T10:44:18.453Z,21.68
2022-08-05T10:46:50.911Z,21.71
2022-08-05T10:49:27.207Z,21.61
2022-08-05T10:52:05.011Z,21.78
2022-08-05T10:54:56.061Z,21.98
2022-08-05T10:57:30.989Z,21.73
2022-08-05T11:00:19.770Z,21.73
2022-08-05T11:03:25.169Z,21.51
2022-08-05T11:06:15.429Z,21.76
2022-08-05T11:09:13.009Z,21.57
2022-08-05T11:17:58.178Z,21.77
2022-08-05T11:20:44.617Z,21.84
2022-08-05T11:24:04.857Z,21.98
2022-08-05T11:26:28.503Z,22.63
2022-08-05T11:28:58.740Z,22.60
2022-08-05T11:31:54.126Z,22.64
2022-08-05T11:34:37.287Z,22.92
2022-08-05T11:37:06.246Z,22.96
2022-08-05T11:39:55.334Z,23.11
2022-08-05T11:42:28.841Z,23.39
2022-08-05T11:45:02.943Z,24.64
2022-08-05T11:47:49.882Z,24.40
2022-08-05T11:50:18.652Z,24.49
2022-08-05T11:52:49.620Z,24.35
2022-08-05T11:55:20.498Z,24.53
2022-08-05T11:58:10.521Z,25.38
2022-08-05T12:00:38.462Z,26.12
2022-08-05T12:03:23.963Z,25.84
2022-08-05T12:06:02.826Z,26.16
2022-08-05T12:08:31.515Z,26.58
2022-08-05T12:11:06.123Z,28.18
2022-08-05T12:13:48.821Z,28.41
2022-08-05T12:16:19.554Z,28.46
2022-08-05T12:18:52.380Z,28.04
2022-08-05T12:21:23.580Z,27.95
2022-08-05T12:24:05.114Z,27.45
2022-08-05T12:26:36.143Z,27.00
2022-08-05T12:29:05.085Z,27.89
2022-08-05T12:31:43.480Z,28.75
2022-08-05T12:34:21.232Z,28.89
2022-08-05T12:36:51.745Z,29.28
2022-08-05T12:39:20.159Z,29.97
2022-08-05T12:41:49.613Z,30.44
2022-08-05T12:44:33.236Z,29.57
2022-08-05T12:47:02.839Z,30.57
2022-08-05T12:50:02.300Z,29.61
2022-08-05T12:52:37.778Z,27.69
2022-08-05T12:55:22.637Z,27.32
2022-08-05T12:58:49.311Z,26.52
2022-08-05T13:02:02.361Z,26.97
2022-08-05T13:03:39.086Z,28.33
2022-08-05T13:06:13.762Z,30.07
2022-08-05T13:08:49.113Z,29.65
2022-08-05T13:11:25.647Z,29.50
2022-08-05T13:14:20.460Z,30.39
2022-08-05T13:17:04.375Z,30.97
2022-08-05T13:19:51.746Z,29.32
2022-08-05T13:22:28.557Z,29.20
2022-08-05T13:25:00.841Z,27.77
2022-08-05T13:27:35.496Z,27.05
2022-08-05T13:30:33.920Z,26.17
2022-08-05T13:33:01.226Z,25.74
2022-08-05T13:35:43.130Z,25.89
2022-08-05T13:38:28.160Z,25.69
2022-08-05T13:40:59.882Z,25.62
2022-08-05T13:43:45.722Z,25.82
2022-08-05T13:46:30.858Z,25.64
2022-08-05T13:49:09.833Z,27.42
2022-08-05T13:51:40.954Z,28.11
2022-08-05T13:54:11.977Z,29.74
2022-08-05T13:56:45.229Z,30.20
2022-08-05T13:59:20.245Z,30.89
2022-08-05T14:01:56.663Z,30.85
2022-08-05T14:04:49.391Z,30.79
2022-08-05T14:07:26.466Z,31.26
2022-08-05T14:10:08.243Z,29.32
2022-08-05T14:12:36.630Z,28.69
2022-08-05T14:16:05.605Z,27.84
2022-08-05T14:17:59.399Z,27.71
2022-08-05T14:20:27.899Z,27.89
2022-08-05T14:22:56.043Z,27.00
2022-08-05T14:25:27.936Z,26.15
2022-08-05T14:27:56.783Z,25.47
2022-08-05T14:30:27.894Z,25.34
2022-08-05T14:32:57.563Z,25.03
2022-08-05T14:35:37.213Z,24.59
2022-08-05T14:38:32.290Z,24.60
2022-08-05T14:41:05.805Z,24.88
2022-08-05T14:44:01.666Z,25.14
2022-08-05T14:46:28.857Z,25.12
2022-08-05T14:49:03.664Z,25.08
2022-08-05T14:51:35.895Z,24.84
2022-08-05T14:54:27.638Z,25.13
2022-08-05T14:56:54.584Z,25.14
2022-08-05T14:59:22.985Z,25.17
2022-08-05T15:01:51.113Z,25.31
2022-08-05T15:04:23.157Z,25.39
2022-08-05T15:06:55.304Z,25.26
2022-08-05T15:09:54.241Z,25.18
2022-08-05T15:12:16.454Z,25.28
2022-08-05T15:14:50.289Z,25.41
2022-08-05T15:17:45.987Z,25.33
2022-08-05T15:20:18.240Z,25.05
2022-08-05T15:22:52.192Z,25.53
2022-08-05T15:25:23.695Z,25.36
2022-08-05T15:28:13.205Z,25.42
2022-08-05T15:30:43.342Z,25.44
2022-08-05T15:33:11.878Z,25.77
2022-08-05T15:35:44.915Z,26.04
2022-08-05T15:38:34.811Z,26.66
2022-08-05T15:41:23.059Z,26.69
2022-08-05T15:43:49.866Z,27.72
2022-08-05T15:46:18.113Z,28.37
2022-08-05T15:48:52.905Z,27.84
2022-08-05T15:52:04.416Z,28.59
2022-08-05T15:54:16.615Z,29.59
2022-08-05T15:56:44.588Z,29.88
2022-08-05T15:59:21.664Z,31.12
2022-08-05T16:01:52.885Z,31.60
2022-08-05T16:04:25.209Z,32.27
2022-08-05T16:06:55.918Z,31.40
2022-08-05T16:09:24.797Z,32.65
2022-08-05T16:11:53.898Z,32.51
2022-08-05T16:14:22.371Z,31.21
2022-08-05T16:16:50.590Z,29.69
2022-08-05T16:19:25.627Z,28.94
2022-08-05T16:22:10.792Z,27.97
2022-08-05T16:24:51.321Z,26.97
2022-08-05T16:27:47.156Z,27.00
2022-08-05T16:30:26.415Z,26.58
2022-08-05T16:32:55.284Z,25.82
2022-08-05T16:35:28.002Z,25.90
2022-08-05T16:38:15.257Z,25.74
2022-08-05T16:40:52.165Z,25.52
2022-08-05T16:43:24.206Z,25.76
2022-08-05T16:46:04.678Z,25.73
2022-08-05T16:48:37.518Z,25.56
2022-08-05T16:51:10.087Z,25.33
2022-08-05T16:54:04.366Z,25.74
2022-08-05T16:56:30.128Z,25.89
2022-08-05T16:58:58.316Z,26.17
2022-08-05T17:01:26.901Z,25.62
2022-08-05T17:03:56.924Z,25.30
2022-08-05T17:06:25.000Z,25.09
2022-08-05T17:08:54.716Z,25.76
2022-08-05T17:11:23.959Z,26.99
2022-08-05T17:14:00.306Z,26.95
2022-08-05T17:16:36.794Z,26.67
2022-08-05T17:19:07.097Z,27.89
2022-08-05T17:21:37.615Z,29.13
2022-08-05T17:24:28.038Z,29.30
2022-08-05T17:26:58.150Z,29.91
2022-08-05T17:29:33.916Z,31.09
2022-08-05T17:32:08.628Z,30.59
2022-08-05T17:34:40.147Z,30.33
2022-08-05T17:37:29.490Z,30.08
2022-08-05T17:40:00.270Z,30.79
2022-08-05T17:42:32.412Z,30.79
2022-08-05T17:45:18.242Z,30.29
2022-08-05T17:47:53.995Z,29.70
2022-08-05T17:50:28.654Z,29.46
2022-08-05T17:52:59.868Z,30.09
2022-08-05T17:55:38.468Z,30.34
2022-08-05T17:58:09.771Z,29.45
2022-08-05T18:00:44.727Z,28.77
2022-08-05T18:03:28.168Z,27.43
2022-08-05T18:06:05.772Z,26.87
2022-08-05T18:08:34.237Z,26.34
2022-08-05T18:11:03.828Z,26.40
2022-08-05T18:13:36.422Z,26.39
2022-08-05T18:16:05.535Z,25.98
2022-08-05T18:18:39.917Z,25.42
2022-08-05T18:21:13.252Z,25.50
2022-08-05T18:23:48.065Z,25.28
2022-08-05T18:26:18.111Z,25.11
2022-08-05T18:28:46.853Z,24.47
2022-08-05T18:31:16.046Z,24.44
2022-08-05T18:33:46.762Z,24.12
2022-08-05T18:36:15.766Z,23.80
2022-08-05T18:38:43.830Z,23.64
2022-08-05T18:41:57.573Z,23.49
2022-08-05T18:44:06.249Z,23.25
2022-08-05T18:46:35.993Z,22.94
2022-08-05T18:49:30.797Z,22.91
2022-08-05T18:52:32.926Z,22.95
2022-08-05T18:55:01.420Z,22.59
2022-08-05T18:57:43.074Z,22.60
2022-08-05T19:00:20.383Z,22.47
2022-08-05T19:02:48.871Z,22.33
2022-08-05T19:06:11.444Z,22.43
2022-08-05T19:08:12.219Z,22.36
2022-08-05T19:10:41.772Z,22.32
2022-08-05T19:13:12.303Z,22.31
2022-08-05T19:16:00.011Z,22.26
2022-08-05T19:18:31.659Z,22.23
2022-08-05T19:21:00.237Z,22.21
2022-08-05T19:24:06.677Z,22.12
2022-08-05T19:26:19.425Z,21.98
2022-08-05T19:28:47.349Z,22.06
2022-08-05T19:31:19.499Z,21.92
2022-08-05T19:33:56.889Z,21.88
2022-08-05T19:36:25.553Z,21.88
2022-08-05T19:38:54.869Z,21.87
2022-08-05T19:41:58.557Z,21.68
2022-08-05T19:44:15.078Z,21.56
2022-08-05T19:46:44.492Z,21.61
2022-08-05T19:49:17.189Z,21.31
2022-08-05T19:52:09.080Z,21.27
2022-08-05T19:54:35.083Z,21.11
2022-08-05T19:57:06.675Z,21.22
2022-08-05T19:59:55.225Z,21.14
2022-08-05T20:02:30.279Z,21.03
2022-08-05T20:04:59.888Z,20.92
2022-08-05T20:07:46.224Z,20.99
2022-08-05T20:10:17.206Z,20.96
2022-08-05T20:12:47.929Z,20.92
2022-08-05T20:15:48.758Z,20.93
2022-08-05T20:18:09.761Z,20.88
2022-08-05T20:20:48.240Z,20.72
2022-08-05T20:23:16.236Z,20.69
2022-08-05T20:25:44.333Z,20.52
2022-08-05T20:28:14.665Z,20.37
2022-08-05T20:30:42.727Z,20.41
2022-08-05T20:33:12.310Z,20.41
2022-08-05T20:35:45.276Z,20.24
2022-08-05T20:38:20.163Z,20.27
2022-08-05T20:40:55.241Z,20.22
2022-08-05T20:43:57.485Z,20.28
2022-08-05T20:46:18.627Z,19.98
2022-08-05T20:48:54.766Z,20.05
2022-08-05T20:51:22.742Z,20.14
2022-08-05T20:53:56.580Z,20.13
2022-08-05T20:56:29.899Z,20.13
2022-08-05T20:58:59.995Z,20.00
2022-08-05T21:01:41.984Z,20.02
2022-08-05T21:04:11.407Z,20.00
2022-08-05T21:06:45.751Z,20.06
2022-08-05T21:09:15.032Z,20.10
2022-08-05T21:12:06.988Z,20.12
2022-08-05T21:14:34.600Z,19.81
2022-08-05T21:17:04.817Z,19.59
2022-08-05T21:19:47.107Z,19.60
2022-08-05T21:22:17.665Z,19.60
2022-08-05T21:24:49.031Z,19.63
2022-08-05T21:27:20.428Z,19.58
2022-08-05T21:29:55.279Z,19.51
2022-08-05T21:32:24.508Z,19.47
2022-08-05T21:35:08.290Z,19.56
2022-08-05T21:37:52.711Z,19.52
2022-08-05T21:40:21.593Z,19.32
2022-08-05T21:42:52.049Z,19.18
2022-08-05T21:45:24.226Z,19.31
2022-08-05T21:47:56.214Z,19.36
2022-08-05T21:50:26.979Z,19.27
2022-08-05T21:52:59.008Z,19.19
2022-08-05T21:55:43.002Z,19.26
2022-08-05T21:58:30.842Z,19.21
2022-08-05T22:01:00.955Z,19.25
2022-08-05T22:03:48.205Z,19.27
2022-08-05T22:06:22.743Z,19.17
2022-08-05T22:08:51.701Z,19.18
2022-08-05T22:11:34.436Z,19.00
2022-08-05T22:14:06.283Z,18.87
2022-08-05T22:16:56.789Z,18.92
2022-08-05T22:20:00.503Z,19.00
2022-08-05T22:22:15.915Z,19.04
2022-08-05T22:25:01.924Z,19.05
2022-08-05T22:28:09.335Z,18.80
2022-08-05T22:30:35.871Z,18.87
2022-08-05T22:33:04.426Z,18.89
2022-08-05T22:35:48.559Z,18.52
2022-08-05T22:38:19.759Z,18.72
2022-08-05T22:40:49.924Z,18.78
2022-08-05T22:43:37.331Z,18.92
2022-08-05T22:46:13.536Z,18.80
2022-08-05T22:48:51.417Z,18.90
2022-08-05T22:51:23.343Z,18.89
2022-08-05T22:54:08.502Z,18.88
2022-08-05T22:56:36.422Z,18.67
2022-08-05T22:59:46.114Z,18.81
2022-08-05T23:02:04.178Z,18.63
2022-08-05T23:04:34.356Z,18.67
2022-08-05T23:07:02.260Z,18.48
2022-08-05T23:09:57.333Z,18.49
2022-08-05T23:12:24.093Z,18.34
2022-08-05T23:14:52.508Z,18.15
2022-08-05T23:17:34.969Z,18.32
2022-08-05T23:20:16.703Z,18.15
2022-08-05T23:22:47.420Z,17.92
2022-08-05T23:25:52.714Z,18.12
2022-08-05T23:28:06.906Z,18.06
2022-08-05T23:30:39.948Z,18.12
2022-08-05T23:33:22.355Z,18.09
2022-08-05T23:35:59.437Z,17.90
2022-08-05T23:38:27.324Z,17.79
2022-08-05T23:40:56.585Z,17.74
2022-08-05T23:43:37.207Z,17.66
2022-08-05T23:46:21.223Z,17.60
2022-08-05T23:49:01.201Z,17.72
2022-08-05T23:51:53.933Z,17.63
2022-08-05T23:54:25.847Z,17.49
2022-08-05T23:56:57.146Z,17.33
